createdAt,value
2023-03-18T00:00:43.724Z,0.00
2023-03-18T00:01:43.724Z,0.00
2023-03-18T00:02:43.809Z,0.00
2023-03-18T00:03:43.925Z,0.00
2023-03-18T00:04:43.678Z,0.00
2023-03-18T00:05:43.689Z,0.00
2023-03-18T00:06:43.670Z,0.00
2023-03-18T00:07:43.653Z,0.00
2023-03-18T00:08:43.693Z,0.00
2023-03-18T00:09:43.646Z,0.00
2023-03-18T00:10:43.645Z,0.00
2023-03-18T00:11:43.629Z,0.00
2023-03-18T00:12:43.604Z,0.00
2023-03-18T00:13:43.589Z,0.00
2023-03-18T00:14:43.621Z,0.00
2023-03-18T00:15:43.641Z,0.00
2023-03-18T00:16:43.563Z,0.00
2023-03-18T00:17:43.555Z,0.00
2023-03-18T00:18:43.544Z,0.00
2023-03-18T00:19:43.531Z,0.00
2023-03-18T00:20:43.691Z,0.00
2023-03-18T00:21:43.514Z,0.00
2023-03-18T00:22:43.505Z,0.00
2023-03-18T00:23:43.495Z,0.00
2023-03-18T00:24:43.480Z,0.00
2023-03-18T00:25:43.500Z,0.00
2023-03-18T00:26:43.530Z,0.00
2023-03-18T00:27:43.449Z,0.00
2023-03-18T00:28:43.431Z,0.00
2023-03-18T00:29:43.425Z,0.00
2023-03-18T00:30:43.412Z,0.00
2023-03-18T00:31:43.473Z,0.00
2023-03-18T00:32:43.478Z,0.00
2023-03-18T00:33:43.390Z,0.00
2023-03-18T00:34:43.421Z,0.00
2023-03-18T00:35:43.376Z,0.00
2023-03-18T00:36:43.401Z,0.00
2023-03-18T00:37:43.356Z,0.00
2023-03-18T00:38:43.629Z,0.00
2023-03-18T00:39:43.323Z,0.00
2023-03-18T00:40:43.545Z,0.00
2023-03-18T00:41:43.307Z,0.00
2023-03-18T00:42:43.287Z,0.00
2023-03-18T00:43:43.293Z,0.00
2023-03-18T00:44:43.411Z,0.00
2023-03-18T00:45:43.260Z,0.00
2023-03-18T00:46:50.754Z,0.00
2023-03-18T00:47:43.240Z,0.00
2023-03-18T00:48:43.233Z,0.00
2023-03-18T00:49:43.222Z,0.00
2023-03-18T00:50:43.385Z,0.00
2023-03-18T00:51:43.194Z,0.00
2023-03-18T00:52:43.185Z,0.00
2023-03-18T00:53:43.174Z,0.00
2023-03-18T00:54:43.162Z,0.00
2023-03-18T00:55:43.168Z,0.00
2023-03-18T00:56:43.193Z,0.00
2023-03-18T00:57:43.144Z,0.00
2023-03-18T00:58:43.129Z,0.00
2023-03-18T00:59:43.123Z,0.00
2023-03-18T01:00:43.114Z,0.00
2023-03-18T01:01:43.159Z,0.00
2023-03-18T01:02:43.142Z,0.00
2023-03-18T01:03:43.112Z,0.00
2023-03-18T01:04:43.062Z,0.00
2023-03-18T01:05:43.065Z,0.00
2023-03-18T01:06:43.041Z,0.00
2023-03-18T01:07:43.031Z,0.00
2023-03-18T01:08:43.187Z,0.00
2023-03-18T01:09:43.019Z,0.00
2023-03-18T01:10:43.001Z,0.00
2023-03-18T01:11:42.995Z,0.00
2023-03-18T01:12:42.991Z,0.00
2023-03-18T01:13:42.984Z,0.00
2023-03-18T01:14:43.130Z,0.00
2023-03-18T01:15:42.945Z,0.00
2023-03-18T01:16:42.994Z,0.00
2023-03-18T01:17:42.942Z,0.00
2023-03-18T01:18:42.923Z,0.00
2023-03-18T01:19:42.910Z,0.00
2023-03-18T01:20:43.077Z,0.00
2023-03-18T01:21:42.884Z,0.00
2023-03-18T01:22:42.881Z,0.00
2023-03-18T01:23:42.861Z,0.00
2023-03-18T01:24:42.865Z,0.00
2023-03-18T01:25:42.850Z,0.00
2023-03-18T01:26:43.006Z,0.00
2023-03-18T01:27:42.830Z,0.00
2023-03-18T01:28:42.825Z,0.00
2023-03-18T01:29:42.808Z,0.00
2023-03-18T01:30:42.794Z,0.00
2023-03-18T01:31:42.840Z,0.00
2023-03-18T01:32:42.864Z,0.00
2023-03-18T01:33:42.778Z,0.00
2023-03-18T01:34:42.760Z,0.00
2023-03-18T01:35:42.752Z,0.00
2023-03-18T01:36:42.745Z,0.00
2023-03-18T01:37:42.716Z,0.00
2023-03-18T01:38:42.762Z,0.00
2023-03-18T01:39:42.719Z,0.00
2023-03-18T01:40:42.690Z,0.00
2023-03-18T01:41:42.680Z,0.00
2023-03-18T01:42:42.669Z,0.00
2023-03-18T01:43:42.714Z,0.00
2023-03-18T01:44:42.711Z,0.00
2023-03-18T01:45:42.657Z,0.00
2023-03-18T01:46:50.704Z,0.00
2023-03-18T01:47:42.608Z,0.00
2023-03-18T01:48:42.624Z,0.00
2023-03-18T01:49:42.602Z,0.00
2023-03-18T01:50:42.728Z,0.00
2023-03-18T01:51:42.566Z,0.00
2023-03-18T01:52:42.589Z,0.00
2023-03-18T01:53:42.549Z,0.00
2023-03-18T01:54:42.544Z,0.00
2023-03-18T01:55:42.534Z,0.00
2023-03-18T01:56:42.571Z,0.00
2023-03-18T01:57:42.534Z,0.00
2023-03-18T01:58:42.497Z,0.00
2023-03-18T01:59:42.500Z,0.00
2023-03-18T02:00:42.514Z,0.00
2023-03-18T02:01:42.464Z,0.00
2023-03-18T02:02:42.607Z,0.00
2023-03-18T02:03:42.490Z,0.00
2023-03-18T02:04:42.450Z,0.00
2023-03-18T02:05:42.429Z,0.00
2023-03-18T02:06:42.421Z,0.00
2023-03-18T02:07:42.410Z,0.00
2023-03-18T02:08:42.570Z,0.00
2023-03-18T02:09:42.383Z,0.00
2023-03-18T02:10:42.388Z,0.00
2023-03-18T02:11:42.375Z,0.00
2023-03-18T02:12:42.356Z,0.00
2023-03-18T02:13:42.361Z,0.00
2023-03-18T02:14:42.391Z,0.00
2023-03-18T02:15:42.361Z,0.00
2023-03-18T02:16:42.377Z,0.00
2023-03-18T02:17:42.303Z,0.00
2023-03-18T02:18:42.288Z,0.00
2023-03-18T02:19:42.286Z,0.00
2023-03-18T02:20:42.326Z,0.00
2023-03-18T02:21:42.287Z,0.00
2023-03-18T02:22:42.261Z,0.00
2023-03-18T02:23:42.235Z,0.00
2023-03-18T02:24:42.239Z,0.00
2023-03-18T02:25:42.236Z,0.00
2023-03-18T02:26:42.391Z,0.00
2023-03-18T02:27:42.219Z,0.00
2023-03-18T02:28:42.198Z,0.00
2023-03-18T02:29:42.178Z,0.00
2023-03-18T02:30:42.201Z,0.00
2023-03-18T02:31:42.151Z,0.00
2023-03-18T02:32:42.226Z,0.00
2023-03-18T02:33:42.143Z,0.00
2023-03-18T02:34:42.126Z,0.00
2023-03-18T02:35:42.137Z,0.00
2023-03-18T02:36:42.116Z,0.00
2023-03-18T02:37:42.093Z,0.00
2023-03-18T02:38:42.349Z,0.00
2023-03-18T02:39:42.073Z,0.00
2023-03-18T02:40:42.069Z,0.00
2023-03-18T02:41:42.053Z,0.00
2023-03-18T02:42:42.063Z,0.00
2023-03-18T02:43:42.038Z,0.00
2023-03-18T02:44:42.067Z,0.00
2023-03-18T02:45:42.030Z,0.00
2023-03-18T02:46:49.276Z,0.00
2023-03-18T02:47:42.006Z,0.00
2023-03-18T02:48:41.988Z,0.00
2023-03-18T02:49:41.970Z,0.00
2023-03-18T02:50:42.521Z,0.00
2023-03-18T02:51:41.955Z,0.00
2023-03-18T02:52:41.953Z,0.00
2023-03-18T02:53:41.939Z,0.00
2023-03-18T02:54:41.932Z,0.00
2023-03-18T02:55:41.910Z,0.00
2023-03-18T02:56:42.058Z,0.00
2023-03-18T02:57:41.913Z,0.00
2023-03-18T02:58:41.887Z,0.00
2023-03-18T02:59:41.869Z,0.00
2023-03-18T03:00:41.879Z,0.00
2023-03-18T03:01:41.931Z,0.00
2023-03-18T03:02:42.035Z,0.00
2023-03-18T03:03:41.967Z,0.00
2023-03-18T03:04:41.828Z,0.00
2023-03-18T03:05:41.809Z,0.00
2023-03-18T03:06:41.834Z,0.00
2023-03-18T03:07:41.802Z,0.00
2023-03-18T03:08:41.988Z,0.00
2023-03-18T03:09:41.780Z,0.00
2023-03-18T03:10:41.773Z,0.00
2023-03-18T03:11:41.760Z,0.00
2023-03-18T03:12:41.760Z,0.00
2023-03-18T03:13:41.738Z,0.00
2023-03-18T03:14:41.890Z,0.00
2023-03-18T03:15:41.735Z,0.00
2023-03-18T03:16:41.736Z,0.00
2023-03-18T03:17:41.689Z,0.00
2023-03-18T03:18:41.676Z,0.00
2023-03-18T03:19:41.672Z,0.00
2023-03-18T03:20:41.821Z,0.00
2023-03-18T03:21:41.651Z,0.00
2023-03-18T03:22:41.635Z,0.00
2023-03-18T03:23:41.630Z,0.00
2023-03-18T03:24:41.616Z,0.00
2023-03-18T03:25:41.627Z,0.00
2023-03-18T03:26:41.787Z,0.00
2023-03-18T03:27:41.579Z,0.00
2023-03-18T03:28:41.612Z,0.00
2023-03-18T03:29:41.569Z,0.00
2023-03-18T03:30:41.556Z,0.00
2023-03-18T03:31:41.545Z,0.00
2023-03-18T03:32:41.627Z,0.00
2023-03-18T03:33:41.521Z,0.00
2023-03-18T03:34:41.519Z,0.00
2023-03-18T03:35:41.513Z,0.00
2023-03-18T03:36:41.492Z,0.00
2023-03-18T03:37:41.478Z,0.00
2023-03-18T03:38:41.643Z,0.00
2023-03-18T03:39:41.466Z,0.00
2023-03-18T03:40:41.453Z,0.00
2023-03-18T03:41:41.445Z,0.00
2023-03-18T03:42:41.435Z,0.00
2023-03-18T03:43:41.416Z,0.00
2023-03-18T03:44:41.696Z,0.00
2023-03-18T03:45:41.399Z,0.00
2023-03-18T03:46:41.428Z,0.00
2023-03-18T03:47:41.404Z,0.00
2023-03-18T03:48:41.373Z,0.00
2023-03-18T03:49:41.350Z,0.00
2023-03-18T03:50:41.408Z,0.00
2023-03-18T03:51:41.336Z,0.00
2023-03-18T03:52:41.328Z,0.00
2023-03-18T03:53:41.319Z,0.00
2023-03-18T03:54:41.308Z,0.00
2023-03-18T03:55:41.315Z,0.00
2023-03-18T03:56:41.576Z,0.00
2023-03-18T03:57:41.275Z,0.00
2023-03-18T03:58:41.266Z,0.00
2023-03-18T03:59:41.243Z,0.00
2023-03-18T04:00:41.249Z,0.00
2023-03-18T04:01:41.229Z,0.00
2023-03-18T04:02:41.340Z,0.00
2023-03-18T04:03:41.205Z,0.00
2023-03-18T04:04:41.204Z,0.00
2023-03-18T04:05:41.188Z,0.00
2023-03-18T04:06:41.186Z,0.00
2023-03-18T04:07:41.180Z,0.00
2023-03-18T04:08:41.301Z,0.00
2023-03-18T04:09:41.159Z,0.00
2023-03-18T04:10:41.135Z,0.00
2023-03-18T04:11:41.140Z,0.00
2023-03-18T04:12:41.140Z,0.00
2023-03-18T04:13:41.096Z,0.00
2023-03-18T04:14:41.148Z,0.00
2023-03-18T04:15:41.088Z,0.00
2023-03-18T04:16:41.079Z,0.00
2023-03-18T04:17:41.057Z,0.00
2023-03-18T04:18:41.060Z,0.00
2023-03-18T04:19:41.038Z,0.00
2023-03-18T04:20:41.176Z,0.00
2023-03-18T04:21:41.014Z,0.00
2023-03-18T04:22:41.015Z,0.00
2023-03-18T04:23:41.009Z,0.00
2023-03-18T04:24:40.993Z,0.00
2023-03-18T04:25:40.983Z,0.00
2023-03-18T04:26:41.136Z,0.00
2023-03-18T04:27:40.959Z,0.00
2023-03-18T04:28:40.959Z,0.00
2023-03-18T04:29:40.952Z,0.00
2023-03-18T04:30:40.932Z,0.00
2023-03-18T04:31:40.969Z,0.00
2023-03-18T04:32:40.986Z,0.00
2023-03-18T04:33:40.927Z,0.00
2023-03-18T04:34:40.913Z,0.00
2023-03-18T04:35:40.947Z,0.00
2023-03-18T04:36:40.881Z,0.00
2023-03-18T04:37:40.866Z,0.00
2023-03-18T04:38:40.916Z,0.00
2023-03-18T04:39:40.837Z,0.00
2023-03-18T04:40:40.833Z,0.00
2023-03-18T04:41:40.811Z,0.00
2023-03-18T04:42:40.811Z,0.00
2023-03-18T04:43:40.787Z,0.00
2023-03-18T04:44:40.828Z,0.00
2023-03-18T04:45:40.767Z,0.00
2023-03-18T04:46:48.870Z,0.00
2023-03-18T04:47:40.757Z,0.00
2023-03-18T04:48:40.748Z,0.00
2023-03-18T04:49:40.732Z,0.00
2023-03-18T04:50:41.002Z,0.00
2023-03-18T04:51:40.707Z,0.00
2023-03-18T04:52:40.721Z,0.00
2023-03-18T04:53:40.686Z,0.00
2023-03-18T04:54:40.680Z,0.00
2023-03-18T04:55:40.677Z,0.00
2023-03-18T04:56:40.811Z,0.00
2023-03-18T04:57:40.665Z,0.00
2023-03-18T04:58:40.705Z,0.00
2023-03-18T04:59:40.655Z,0.00
2023-03-18T05:00:40.722Z,0.00
2023-03-18T05:01:40.599Z,0.00
2023-03-18T05:02:40.872Z,0.00
2023-03-18T05:03:40.663Z,0.00
2023-03-18T05:04:40.669Z,0.00
2023-03-18T05:05:40.581Z,0.00
2023-03-18T05:06:40.555Z,0.00
2023-03-18T05:07:40.544Z,0.00
2023-03-18T05:08:40.689Z,0.00
2023-03-18T05:09:40.531Z,0.00
2023-03-18T05:10:40.508Z,0.00
2023-03-18T05:11:40.508Z,0.00
2023-03-18T05:12:40.491Z,0.00
2023-03-18T05:13:40.478Z,0.00
2023-03-18T05:14:40.613Z,0.00
2023-03-18T05:15:40.474Z,0.00
2023-03-18T05:16:40.534Z,0.00
2023-03-18T05:17:40.451Z,0.00
2023-03-18T05:18:40.423Z,0.00
2023-03-18T05:19:40.426Z,0.00
2023-03-18T05:20:40.558Z,0.00
2023-03-18T05:21:40.412Z,0.00
2023-03-18T05:22:40.392Z,0.00
2023-03-18T05:23:40.385Z,0.00
2023-03-18T05:24:40.364Z,0.00
2023-03-18T05:25:40.367Z,0.00
2023-03-18T05:26:40.381Z,0.00
2023-03-18T05:27:40.275Z,1.00
2023-03-18T05:28:40.319Z,0.00
2023-03-18T05:29:40.327Z,0.00
2023-03-18T05:30:40.318Z,0.00
2023-03-18T05:31:40.375Z,0.00
2023-03-18T05:32:40.286Z,1.00
2023-03-18T05:33:40.231Z,1.00
2023-03-18T05:34:40.205Z,1.00
2023-03-18T05:35:40.218Z,1.00
2023-03-18T05:36:40.251Z,1.00
2023-03-18T05:37:40.197Z,1.00
2023-03-18T05:38:40.320Z,1.00
2023-03-18T05:39:40.168Z,2.00
2023-03-18T05:40:40.141Z,2.00
2023-03-18T05:41:40.190Z,0.00
2023-03-18T05:42:54.929Z,0.00
2023-03-18T05:43:40.133Z,2.00
2023-03-18T05:44:40.144Z,2.00
2023-03-18T05:45:40.726Z,2.00
2023-03-18T05:46:47.293Z,2.00
2023-03-18T05:47:40.073Z,2.00
2023-03-18T05:48:40.050Z,2.00
2023-03-18T05:49:40.057Z,2.00
2023-03-18T05:50:40.174Z,2.00
2023-03-18T05:51:40.035Z,3.00
2023-03-18T05:52:40.009Z,1.00
2023-03-18T05:53:40.022Z,1.00
2023-03-18T05:54:39.992Z,1.00
2023-03-18T05:55:40.050Z,1.00
2023-03-18T05:56:40.244Z,1.00
2023-03-18T05:57:39.988Z,3.00
2023-03-18T05:58:39.956Z,3.00
2023-03-18T05:59:39.959Z,2.00
2023-03-18T06:00:39.997Z,0.00
2023-03-18T06:01:39.937Z,2.00
2023-03-18T06:02:39.975Z,2.00
2023-03-18T06:03:39.975Z,2.00
2023-03-18T06:04:39.887Z,2.00
2023-03-18T06:05:39.898Z,2.00
2023-03-18T06:06:39.885Z,4.00
2023-03-18T06:07:39.869Z,3.00
2023-03-18T06:08:40.043Z,1.00
2023-03-18T06:09:39.851Z,7.00
2023-03-18T06:10:39.829Z,7.00
2023-03-18T06:11:39.822Z,6.00
2023-03-18T06:12:39.827Z,4.00
2023-03-18T06:13:39.809Z,4.00
2023-03-18T06:14:39.934Z,5.00
2023-03-18T06:15:39.789Z,7.00
2023-03-18T06:16:39.807Z,9.00
2023-03-18T06:17:39.768Z,6.00
2023-03-18T06:18:39.746Z,6.00
2023-03-18T06:19:39.748Z,6.00
2023-03-18T06:20:39.777Z,9.00
2023-03-18T06:21:39.735Z,8.00
2023-03-18T06:22:39.714Z,8.00
2023-03-18T06:23:39.715Z,8.00
2023-03-18T06:24:39.683Z,7.00
2023-03-18T06:25:39.681Z,5.00
2023-03-18T06:26:40.510Z,3.00
2023-03-18T06:27:39.866Z,3.00
2023-03-18T06:28:39.677Z,5.00
2023-03-18T06:29:39.661Z,7.00
2023-03-18T06:30:39.780Z,7.00
2023-03-18T06:31:39.622Z,9.00
2023-03-18T06:32:39.649Z,14.00
2023-03-18T06:33:40.111Z,10.00
2023-03-18T06:34:40.674Z,9.00
2023-03-18T06:35:39.648Z,8.00
2023-03-18T06:36:39.587Z,10.00
2023-03-18T06:37:39.574Z,9.00
2023-03-18T06:38:39.690Z,7.00
2023-03-18T06:39:41.246Z,8.00
2023-03-18T06:40:39.516Z,10.00
2023-03-18T06:41:39.517Z,10.00
2023-03-18T06:42:39.518Z,10.00
2023-03-18T06:43:39.508Z,10.00
2023-03-18T06:44:39.625Z,10.00
2023-03-18T06:45:39.478Z,10.00
2023-03-18T06:46:47.852Z,10.00
2023-03-18T06:47:39.445Z,10.00
2023-03-18T06:48:39.433Z,10.00
2023-03-18T06:49:39.478Z,10.00
2023-03-18T06:50:39.583Z,10.00
2023-03-18T06:51:39.431Z,10.00
2023-03-18T06:52:39.453Z,10.00
2023-03-18T06:53:39.439Z,9.00
2023-03-18T06:54:39.410Z,9.00
2023-03-18T06:55:39.404Z,9.00
2023-03-18T06:56:39.488Z,9.00
2023-03-18T06:57:39.424Z,11.00
2023-03-18T06:58:39.346Z,9.00
2023-03-18T06:59:39.361Z,9.00
2023-03-18T07:00:39.361Z,11.00
2023-03-18T07:01:39.416Z,11.00
2023-03-18T07:02:39.834Z,11.00
2023-03-18T07:03:41.018Z,10.00
2023-03-18T07:04:39.349Z,10.00
2023-03-18T07:05:39.268Z,11.00
2023-03-18T07:06:39.268Z,16.00
2023-03-18T07:07:39.238Z,15.00
2023-03-18T07:08:39.272Z,13.00
2023-03-18T07:09:39.231Z,10.00
2023-03-18T07:10:39.203Z,15.00
2023-03-18T07:11:39.203Z,16.00
2023-03-18T07:12:39.202Z,14.00
2023-03-18T07:13:39.186Z,15.00
2023-03-18T07:14:39.315Z,15.00
2023-03-18T07:15:39.232Z,16.00
2023-03-18T07:16:39.160Z,18.00
2023-03-18T07:17:39.147Z,19.00
2023-03-18T07:18:39.125Z,22.00
2023-03-18T07:19:39.127Z,18.00
2023-03-18T07:20:39.258Z,17.00
2023-03-18T07:21:39.102Z,15.00
2023-03-18T07:22:39.082Z,13.00
2023-03-18T07:23:39.109Z,11.00
2023-03-18T07:24:39.082Z,10.00
2023-03-18T07:25:39.085Z,12.00
2023-03-18T07:26:39.194Z,12.00
2023-03-18T07:27:39.051Z,12.00
2023-03-18T07:28:39.027Z,12.00
2023-03-18T07:29:39.020Z,12.00
2023-03-18T07:30:38.993Z,13.00
2023-03-18T07:31:39.043Z,15.00
2023-03-18T07:32:39.100Z,15.00
2023-03-18T07:33:38.967Z,15.00
2023-03-18T07:34:38.995Z,9.00
2023-03-18T07:35:38.967Z,11.00
2023-03-18T07:36:38.967Z,9.00
2023-03-18T07:37:38.931Z,7.00
2023-03-18T07:38:39.104Z,7.00
2023-03-18T07:39:38.915Z,9.00
2023-03-18T07:40:38.906Z,11.00
2023-03-18T07:41:38.943Z,9.00
2023-03-18T07:42:38.885Z,7.00
2023-03-18T07:43:38.867Z,9.00
2023-03-18T07:44:38.902Z,10.00
2023-03-18T07:45:38.920Z,10.00
2023-03-18T07:46:45.959Z,10.00
2023-03-18T07:47:38.825Z,10.00
2023-03-18T07:48:38.814Z,10.00
2023-03-18T07:49:39.107Z,4.00
2023-03-18T07:50:38.973Z,5.00
2023-03-18T07:51:38.778Z,6.00
2023-03-18T07:52:38.788Z,9.00
2023-03-18T07:53:38.768Z,7.00
2023-03-18T07:54:38.751Z,9.00
2023-03-18T07:55:38.741Z,9.00
2023-03-18T07:56:38.798Z,7.00
2023-03-18T07:57:38.723Z,7.00
2023-03-18T07:58:38.723Z,14.00
2023-03-18T07:59:38.704Z,10.00
2023-03-18T08:00:38.688Z,9.00
2023-03-18T08:01:38.695Z,14.00
2023-03-18T08:02:39.004Z,18.00
2023-03-18T08:03:38.716Z,16.00
2023-03-18T08:04:38.686Z,18.00
2023-03-18T08:05:38.638Z,15.00
2023-03-18T08:06:38.621Z,13.00
2023-03-18T08:07:38.643Z,15.00
2023-03-18T08:08:38.698Z,7.00
2023-03-18T08:09:38.607Z,15.00
2023-03-18T08:10:38.590Z,7.00
2023-03-18T08:11:38.579Z,9.00
2023-03-18T08:12:52.201Z,11.00
2023-03-18T08:13:39.079Z,10.00
2023-03-18T08:14:38.592Z,7.00
2023-03-18T08:15:38.540Z,4.00
2023-03-18T08:16:38.555Z,12.00
2023-03-18T08:17:38.518Z,11.00
2023-03-18T08:18:38.501Z,14.00
2023-03-18T08:19:38.492Z,19.00
2023-03-18T08:20:38.746Z,18.00
2023-03-18T08:21:38.489Z,19.00
2023-03-18T08:22:38.464Z,14.00
2023-03-18T08:23:38.458Z,15.00
2023-03-18T08:24:38.452Z,16.00
2023-03-18T08:25:38.433Z,16.00
2023-03-18T08:26:38.568Z,15.00
2023-03-18T08:27:38.417Z,12.00
2023-03-18T08:28:38.402Z,15.00
2023-03-18T08:29:38.386Z,10.00
2023-03-18T08:30:38.367Z,17.00
2023-03-18T08:31:38.531Z,21.00
2023-03-18T08:32:38.482Z,22.00
2023-03-18T08:33:38.404Z,16.00
2023-03-18T08:34:38.334Z,19.00
2023-03-18T08:35:38.358Z,18.00
2023-03-18T08:36:38.304Z,17.00
2023-03-18T08:37:38.317Z,21.00
2023-03-18T08:38:38.487Z,21.00
2023-03-18T08:39:38.292Z,20.00
2023-03-18T08:40:38.270Z,18.00
2023-03-18T08:41:38.261Z,20.00
2023-03-18T08:42:38.251Z,18.00
2023-03-18T08:43:39.180Z,18.00
2023-03-18T08:44:38.388Z,20.00
2023-03-18T08:45:38.291Z,24.00
2023-03-18T08:46:38.216Z,26.00
2023-03-18T08:47:38.211Z,30.00
2023-03-18T08:48:38.193Z,34.00
2023-03-18T08:49:38.188Z,34.00
2023-03-18T08:50:38.308Z,27.00
2023-03-18T08:51:38.166Z,31.00
2023-03-18T08:52:38.149Z,27.00
2023-03-18T08:53:38.140Z,25.00
2023-03-18T08:54:38.126Z,29.00
2023-03-18T08:55:38.120Z,28.00
2023-03-18T08:56:38.160Z,27.00
2023-03-18T08:57:38.107Z,23.00
2023-03-18T08:58:38.096Z,21.00
2023-03-18T08:59:38.076Z,18.00
2023-03-18T09:00:38.065Z,18.00
2023-03-18T09:01:38.176Z,19.00
2023-03-18T09:02:38.094Z,17.00
2023-03-18T09:03:38.141Z,19.00
2023-03-18T09:04:38.022Z,16.00
2023-03-18T09:05:38.016Z,18.00
2023-03-18T09:06:38.095Z,26.00
2023-03-18T09:07:37.996Z,16.00
2023-03-18T09:08:38.045Z,15.00
2023-03-18T09:09:43.648Z,24.00
2023-03-18T09:10:37.966Z,29.00
2023-03-18T09:11:37.955Z,27.00
2023-03-18T09:12:37.952Z,30.00
2023-03-18T09:13:39.126Z,32.00
2023-03-18T09:14:38.016Z,32.00
2023-03-18T09:15:37.907Z,38.00
2023-03-18T09:16:45.420Z,39.00
2023-03-18T09:17:53.542Z,37.00
2023-03-18T09:18:37.882Z,39.00
2023-03-18T09:19:37.891Z,37.00
2023-03-18T09:20:37.885Z,36.00
2023-03-18T09:21:37.848Z,41.00
2023-03-18T09:22:37.833Z,39.00
2023-03-18T09:23:37.825Z,45.00
2023-03-18T09:24:37.825Z,47.00
2023-03-18T09:25:37.834Z,43.00
2023-03-18T09:26:37.859Z,43.00
2023-03-18T09:27:37.780Z,41.00
2023-03-18T09:28:37.773Z,32.00
2023-03-18T09:29:37.755Z,33.00
2023-03-18T09:30:37.812Z,36.00
2023-03-18T09:31:37.750Z,41.00
2023-03-18T09:32:37.894Z,50.00
2023-03-18T09:33:37.737Z,45.00
2023-03-18T09:34:37.713Z,45.00
2023-03-18T09:35:37.719Z,34.00
2023-03-18T09:36:37.689Z,37.00
2023-03-18T09:37:37.677Z,38.00
2023-03-18T09:38:37.726Z,33.00
2023-03-18T09:39:37.667Z,27.00
2023-03-18T09:40:38.584Z,29.00
2023-03-18T09:41:37.633Z,28.00
2023-03-18T09:42:37.640Z,31.00
2023-03-18T09:43:37.617Z,34.00
2023-03-18T09:44:37.760Z,29.00
2023-03-18T09:45:37.591Z,28.00
2023-03-18T09:46:37.720Z,27.00
2023-03-18T09:47:37.582Z,27.00
2023-03-18T09:48:37.593Z,32.00
2023-03-18T09:49:37.567Z,35.00
2023-03-18T09:50:37.696Z,35.00
2023-03-18T09:51:37.529Z,31.00
2023-03-18T09:52:37.520Z,34.00
2023-03-18T09:53:37.518Z,37.00
2023-03-18T09:54:37.504Z,33.00
2023-03-18T09:55:37.483Z,35.00
2023-03-18T09:56:37.665Z,37.00
2023-03-18T09:57:37.481Z,37.00
2023-03-18T09:58:37.457Z,33.00
2023-03-18T09:59:37.450Z,30.00
2023-03-18T10:00:37.493Z,28.00
2023-03-18T10:01:37.536Z,29.00
2023-03-18T10:02:37.465Z,12.00
2023-03-18T10:03:37.611Z,30.00
2023-03-18T10:04:37.417Z,30.00
2023-03-18T10:05:37.430Z,21.00
2023-03-18T10:06:37.384Z,34.00
2023-03-18T10:07:37.379Z,28.00
2023-03-18T10:08:37.452Z,28.00
2023-03-18T10:09:37.357Z,29.00
2023-03-18T10:10:37.382Z,29.00
2023-03-18T10:11:37.321Z,29.00
2023-03-18T10:12:37.339Z,28.00
2023-03-18T10:13:37.349Z,23.00
2023-03-18T10:14:37.480Z,20.00
2023-03-18T10:15:37.498Z,27.00
2023-03-18T10:16:44.443Z,35.00
2023-03-18T10:17:37.279Z,39.00
2023-03-18T10:18:37.258Z,51.00
2023-03-18T10:19:37.265Z,36.00
2023-03-18T10:20:37.389Z,54.00
2023-03-18T10:21:37.221Z,47.00
2023-03-18T10:22:37.215Z,42.00
2023-03-18T10:23:37.196Z,45.00
2023-03-18T10:24:37.381Z,45.00
2023-03-18T10:25:37.790Z,43.00
2023-03-18T10:26:37.343Z,34.00
2023-03-18T10:27:37.162Z,32.00
2023-03-18T10:28:37.147Z,34.00
2023-03-18T10:29:37.143Z,36.00
2023-03-18T10:30:37.906Z,34.00
2023-03-18T10:31:37.204Z,38.00
2023-03-18T10:32:49.084Z,47.00
2023-03-18T10:33:37.899Z,53.00
2023-03-18T10:34:37.151Z,52.00
2023-03-18T10:35:37.245Z,48.00
2023-03-18T10:36:37.070Z,42.00
2023-03-18T10:37:37.074Z,43.00
2023-03-18T10:38:37.272Z,48.00
2023-03-18T10:39:37.052Z,68.00
2023-03-18T10:40:37.032Z,69.00
2023-03-18T10:41:37.026Z,75.00
2023-03-18T10:42:37.028Z,76.00
2023-03-18T10:43:37.014Z,69.00
2023-03-18T10:44:37.186Z,71.00
2023-03-18T10:45:36.973Z,58.00
2023-03-18T10:46:37.175Z,52.00
2023-03-18T10:47:37.032Z,63.00
2023-03-18T10:48:36.963Z,64.00
2023-03-18T10:49:36.938Z,57.00
2023-03-18T10:50:37.284Z,55.00
2023-03-18T10:51:36.904Z,57.00
2023-03-18T10:52:36.905Z,52.00
2023-03-18T10:53:36.933Z,53.00
2023-03-18T10:54:36.934Z,53.00
2023-03-18T10:55:36.896Z,66.00
2023-03-18T10:56:37.016Z,75.00
2023-03-18T10:57:36.850Z,85.00
2023-03-18T10:58:36.851Z,87.00
2023-03-18T10:59:36.848Z,79.00
2023-03-18T11:00:36.890Z,65.00
2023-03-18T11:01:36.846Z,62.00
2023-03-18T11:02:37.087Z,74.00
2023-03-18T11:03:36.790Z,50.00
2023-03-18T11:04:36.808Z,65.00
2023-03-18T11:05:36.765Z,75.00
2023-03-18T11:06:36.777Z,72.00
2023-03-18T11:07:36.747Z,65.00
2023-03-18T11:08:37.007Z,57.00
2023-03-18T11:09:36.745Z,60.00
2023-03-18T11:10:36.910Z,55.00
2023-03-18T11:11:36.719Z,69.00
2023-03-18T11:12:36.734Z,80.00
2023-03-18T11:13:36.688Z,71.00
2023-03-18T11:14:36.927Z,71.00
2023-03-18T11:15:36.663Z,69.00
2023-03-18T11:16:43.922Z,60.00
2023-03-18T11:17:36.632Z,51.00
2023-03-18T11:18:36.632Z,50.00
2023-03-18T11:19:36.719Z,51.00
2023-03-18T11:20:36.620Z,46.00
2023-03-18T11:21:36.603Z,44.00
2023-03-18T11:22:36.614Z,42.00
2023-03-18T11:23:36.583Z,42.00
2023-03-18T11:24:36.670Z,41.00
2023-03-18T11:25:36.695Z,43.00
2023-03-18T11:26:36.557Z,35.00
2023-03-18T11:27:36.546Z,42.00
2023-03-18T11:28:36.534Z,42.00
2023-03-18T11:29:36.525Z,42.00
2023-03-18T11:30:36.738Z,42.00
2023-03-18T11:31:36.811Z,44.00
2023-03-18T11:32:36.527Z,45.00
2023-03-18T11:33:36.537Z,44.00
2023-03-18T11:34:36.469Z,49.00
2023-03-18T11:35:36.473Z,57.00
2023-03-18T11:36:36.454Z,58.00
2023-03-18T11:37:36.862Z,58.00
2023-03-18T11:38:36.426Z,64.00
2023-03-18T11:39:36.413Z,54.00
2023-03-18T11:40:36.403Z,57.00
2023-03-18T11:41:36.405Z,58.00
2023-03-18T11:42:36.378Z,56.00
2023-03-18T11:43:36.570Z,60.00
2023-03-18T11:44:36.379Z,58.00
2023-03-18T11:45:36.340Z,57.00
2023-03-18T11:46:36.428Z,50.00
2023-03-18T11:47:36.333Z,42.00
2023-03-18T11:48:36.334Z,67.00
2023-03-18T11:49:37.652Z,72.00
2023-03-18T11:50:36.311Z,76.00
2023-03-18T11:51:36.286Z,83.00
2023-03-18T11:52:36.276Z,80.00
2023-03-18T11:53:36.259Z,93.00
2023-03-18T11:54:36.256Z,74.00
2023-03-18T11:55:36.288Z,73.00
2023-03-18T11:56:36.234Z,80.00
2023-03-18T11:57:36.221Z,73.00
2023-03-18T11:58:36.265Z,83.00
2023-03-18T11:59:36.204Z,71.00
2023-03-18T12:00:36.197Z,73.00
2023-03-18T12:01:36.400Z,53.00
2023-03-18T12:02:36.174Z,70.00
2023-03-18T12:03:36.157Z,60.00
2023-03-18T12:04:36.218Z,54.00
2023-03-18T12:05:36.133Z,54.00
2023-03-18T12:06:36.136Z,56.00
2023-03-18T12:07:38.151Z,53.00
2023-03-18T12:08:36.115Z,58.00
2023-03-18T12:09:36.096Z,59.00
2023-03-18T12:10:36.102Z,64.00
2023-03-18T12:11:36.079Z,63.00
2023-03-18T12:12:36.063Z,67.00
2023-03-18T12:13:37.527Z,64.00
2023-03-18T12:14:36.063Z,63.00
2023-03-18T12:15:36.081Z,63.00
2023-03-18T12:17:46.880Z,49.00
2023-03-18T12:18:48.031Z,40.00
2023-03-18T12:19:47.837Z,62.00
2023-03-18T12:20:47.853Z,68.00
2023-03-18T12:21:47.827Z,66.00
2023-03-18T12:22:47.836Z,63.00
2023-03-18T12:23:50.105Z,59.00
2023-03-18T12:24:48.007Z,64.00
2023-03-18T12:25:47.772Z,67.00
2023-03-18T12:26:47.777Z,72.00
2023-03-18T12:27:47.751Z,73.00
2023-03-18T12:28:47.748Z,72.00
2023-03-18T12:29:47.740Z,70.00
2023-03-18T12:30:47.882Z,70.00
2023-03-18T12:31:47.809Z,75.00
2023-03-18T12:32:47.798Z,67.00
2023-03-18T12:33:47.690Z,70.00
2023-03-18T12:34:47.681Z,65.00
2023-03-18T12:35:47.694Z,60.00
2023-03-18T12:36:47.694Z,56.00
2023-03-18T12:37:47.696Z,56.00
2023-03-18T12:38:47.672Z,58.00
2023-03-18T12:39:47.631Z,50.00
2023-03-18T12:40:48.190Z,60.00
2023-03-18T12:41:47.617Z,63.00
2023-03-18T12:42:47.922Z,67.00
2023-03-18T12:43:47.632Z,64.00
2023-03-18T12:44:47.600Z,65.00
2023-03-18T12:45:47.625Z,56.00
2023-03-18T12:46:47.574Z,61.00
2023-03-18T12:47:47.547Z,63.00
2023-03-18T12:48:47.585Z,60.00
2023-03-18T12:49:47.618Z,71.00
2023-03-18T12:50:47.517Z,74.00
2023-03-18T12:51:47.497Z,66.00
2023-03-18T12:52:47.505Z,61.00
2023-03-18T12:53:47.489Z,60.00
2023-03-18T12:54:47.521Z,63.00
2023-03-18T12:55:47.471Z,61.00
2023-03-18T12:56:47.455Z,65.00
2023-03-18T12:57:47.439Z,74.00
2023-03-18T12:58:47.434Z,73.00
2023-03-18T12:59:52.968Z,72.00
2023-03-18T13:00:47.681Z,71.00
2023-03-18T13:01:47.522Z,72.00
2023-03-18T13:02:47.423Z,69.00
2023-03-18T13:03:47.374Z,81.00
2023-03-18T13:04:47.376Z,87.00
2023-03-18T13:05:47.368Z,78.00
2023-03-18T13:06:47.390Z,77.00
2023-03-18T13:07:47.327Z,70.00